Time;durP1;ratioP1;P1;durP2;ratioP2;P2;SDS_P1;SDS_P2;PMS_P1;PMS_P2;Temp;Humidity;BMP_temperature;BMP_pressure;BME280_temperature;BME280_humidity;BME280_pressure;Samples;Min_cycle;Max_cycle;Signal;HPM_P1;HPM_P2
2023/08/13 00:01:12;;;;;;;7.07;2.83;;;26.80;62.30;;;;;;5067056;28;20439;-83
2023/08/13 00:03:41;;;;;;;2.97;2.63;;;26.80;62.30;;;;;;5090628;28;20450;-82
2023/08/13 00:06:09;;;;;;;3.73;2.60;;;26.80;62.30;;;;;;5070687;28;20506;-83
2023/08/13 00:08:37;;;;;;;4.50;2.73;;;26.80;62.40;;;;;;5057142;28;20452;-83
2023/08/13 00:11:09;;;;;;;6.37;3.00;;;26.80;62.30;;;;;;5064145;28;20526;-83
2023/08/13 00:13:36;;;;;;;3.13;2.20;;;26.70;62.40;;;;;;5052579;28;20471;-83
2023/08/13 00:16:05;;;;;;;4.10;2.73;;;26.70;62.50;;;;;;5062154;28;20460;-83
2023/08/13 00:18:33;;;;;;;2.67;2.43;;;26.70;62.40;;;;;;5072721;28;20495;-82
2023/08/13 00:21:03;;;;;;;4.70;3.00;;;26.70;62.40;;;;;;5072169;28;20965;-82
2023/08/13 00:23:31;;;;;;;2.90;2.67;;;26.70;62.50;;;;;;5064338;28;20440;-82
2023/08/13 00:25:59;;;;;;;6.67;2.70;;;26.70;62.40;;;;;;5063806;28;20518;-82
2023/08/13 00:28:27;;;;;;;2.60;2.17;;;26.70;62.50;;;;;;5066211;28;20544;-82
2023/08/13 00:30:55;;;;;;;3.17;2.30;;;26.70;62.30;;;;;;5059859;28;20469;-82
2023/08/13 00:33:23;;;;;;;4.47;2.40;;;26.70;62.40;;;;;;5057839;28;20456;-82
2023/08/13 00:35:52;;;;;;;5.50;2.90;;;26.60;62.40;;;;;;5062464;28;20442;-82
2023/08/13 00:38:21;;;;;;;6.47;3.07;;;26.70;62.40;;;;;;5059511;28;20438;-82
2023/08/13 00:40:49;;;;;;;3.63;2.43;;;26.60;62.40;;;;;;5054849;28;20985;-83
2023/08/13 00:43:17;;;;;;;5.23;2.77;;;26.60;62.30;;;;;;5072033;28;20444;-83
2023/08/13 00:45:45;;;;;;;5.20;2.83;;;26.60;62.30;;;;;;5071698;28;20514;-82
2023/08/13 00:48:13;;;;;;;2.50;2.30;;;26.60;62.40;;;;;;5071804;28;20899;-82
2023/08/13 00:50:42;;;;;;;2.73;2.53;;;26.60;62.50;;;;;;5072409;28;20828;-83
2023/08/13 00:53:10;;;;;;;3.03;2.30;;;26.60;62.30;;;;;;5059379;28;20473;-83
2023/08/13 00:55:40;;;;;;;2.50;2.23;;;26.60;62.40;;;;;;5062094;28;20418;-83
2023/08/13 00:58:08;;;;;;;4.47;2.53;;;26.50;62.30;;;;;;5059406;28;20463;-83
2023/08/13 01:00:38;;;;;;;3.97;2.50;;;26.50;62.30;;;;;;5061397;28;20488;-83
2023/08/13 01:03:08;;;;;;;5.50;2.53;;;26.50;62.40;;;;;;5062224;28;20516;-83
2023/08/13 01:05:43;;;;;;;6.10;2.23;;;26.50;62.30;;;;;;5065181;28;20472;-82
2023/08/13 01:08:14;;;;;;;5.63;2.73;;;26.50;62.20;;;;;;5064595;28;20992;-82
2023/08/13 01:10:44;;;;;;;3.60;2.73;;;26.50;62.30;;;;;;5064255;28;20472;-82
2023/08/13 01:13:14;;;;;;;6.07;2.87;;;26.50;62.30;;;;;;5070771;28;20505;-82
2023/08/13 01:15:43;;;;;;;3.27;2.40;;;26.40;62.20;;;;;;5070120;28;20496;-81
2023/08/13 01:18:11;;;;;;;4.63;2.60;;;26.40;62.20;;;;;;5067751;28;20414;-81
2023/08/13 01:20:42;;;;;;;2.70;2.50;;;26.40;62.10;;;;;;5069407;28;20491;-82
2023/08/13 01:23:11;;;;;;;3.43;2.30;;;26.40;62.10;;;;;;5070975;28;20481;-82
2023/08/13 01:25:39;;;;;;;5.23;2.43;;;26.40;62.10;;;;;;5071913;28;20437;-81
2023/08/13 01:28:09;;;;;;;4.90;2.57;;;26.40;61.90;;;;;;5071417;28;20473;-81
2023/08/13 01:30:39;;;;;;;6.73;2.63;;;26.30;62.20;;;;;;5068727;28;20457;-81
2023/08/13 01:33:09;;;;;;;3.83;2.37;;;26.30;62.20;;;;;;5068902;28;20470;-81
2023/08/13 01:35:36;;;;;;;3.20;2.47;;;26.30;62.10;;;;;;5072881;28;20397;-81
2023/08/13 01:38:05;;;;;;;3.23;2.10;;;26.30;62.20;;;;;;5079438;28;20466;-82
2023/08/13 01:40:34;;;;;;;5.90;2.57;;;26.30;62.30;;;;;;5084428;28;20422;-81
2023/08/13 01:43:02;;;;;;;5.60;3.07;;;26.30;62.10;;;;;;5068470;28;20466;-81
2023/08/13 01:45:30;;;;;;;5.53;2.30;;;26.30;62.30;;;;;;5067788;28;20820;-82
2023/08/13 01:47:58;;;;;;;4.60;2.30;;;26.20;62.90;;;;;;5068984;28;20430;-81
2023/08/13 01:50:26;;;;;;;5.77;2.50;;;26.20;62.40;;;;;;5075065;28;20420;-81
2023/08/13 01:52:55;;;;;;;5.33;2.47;;;26.20;62.30;;;;;;5069498;28;20489;-81
2023/08/13 01:55:23;;;;;;;4.07;2.60;;;26.20;62.40;;;;;;5071199;28;20446;-81
2023/08/13 01:57:52;;;;;;;3.90;2.47;;;26.20;62.30;;;;;;5066962;28;20420;-81
2023/08/13 02:00:20;;;;;;;2.90;2.60;;;26.20;62.30;;;;;;5067952;28;20572;-82
2023/08/13 02:02:48;;;;;;;2.70;2.50;;;26.20;62.40;;;;;;5066007;28;20468;-82
2023/08/13 02:05:17;;;;;;;3.90;2.73;;;26.20;62.20;;;;;;5077718;28;20445;-82
2023/08/13 02:07:45;;;;;;;3.53;2.80;;;26.10;62.40;;;;;;5077836;28;20466;-82
2023/08/13 02:10:12;;;;;;;3.63;2.70;;;26.10;62.40;;;;;;5077940;28;20413;-81
2023/08/13 02:12:41;;;;;;;4.40;2.90;;;26.20;62.40;;;;;;5077392;28;20501;-81
2023/08/13 02:15:10;;;;;;;3.20;2.87;;;26.20;62.40;;;;;;5076300;28;20434;-81
2023/08/13 02:17:39;;;;;;;6.10;3.70;;;26.10;62.20;;;;;;5077034;28;20487;-82
2023/08/13 02:20:10;;;;;;;6.30;4.40;;;26.10;62.40;;;;;;5065878;28;20461;-81
2023/08/13 02:22:38;;;;;;;7.47;5.53;;;26.10;62.30;;;;;;5074106;28;20719;-81
2023/08/13 02:25:07;;;;;;;6.63;5.57;;;26.10;62.20;;;;;;5074928;28;20423;-81
2023/08/13 02:27:35;;;;;;;7.63;5.90;;;26.10;62.30;;;;;;5072326;28;20476;-82
2023/08/13 02:30:03;;;;;;;12.90;9.90;;;26.10;62.10;;;;;;5060012;28;20435;-82
2023/08/13 02:32:33;;;;;;;13.90;10.73;;;26.10;62.40;;;;;;5060188;28;20537;-82
2023/08/13 02:35:01;;;;;;;14.90;10.20;;;26.10;62.40;;;;;;5059640;28;20533;-81
2023/08/13 02:37:29;;;;;;;12.77;9.70;;;26.10;62.00;;;;;;5066997;28;20458;-82
2023/08/13 02:39:57;;;;;;;16.10;10.57;;;26.10;62.10;;;;;;5073880;28;20438;-82
2023/08/13 02:42:25;;;;;;;16.13;10.93;;;26.10;62.30;;;;;;5078871;28;20424;-82
2023/08/13 02:44:53;;;;;;;14.40;10.80;;;26.10;61.90;;;;;;5075782;28;20408;-81
2023/08/13 02:47:21;;;;;;;14.60;10.90;;;26.10;62.30;;;;;;5072962;28;20969;-82
2023/08/13 02:49:50;;;;;;;16.10;11.10;;;26.10;62.10;;;;;;5070893;28;20440;-82
2023/08/13 02:52:18;;;;;;;16.93;12.13;;;26.10;61.90;;;;;;5075631;28;20492;-82
2023/08/13 02:54:46;;;;;;;16.10;12.20;;;26.10;62.00;;;;;;5066176;28;20439;-82
2023/08/13 02:57:14;;;;;;;15.03;11.93;;;26.20;61.90;;;;;;5060610;28;20470;-82
2023/08/13 02:59:43;;;;;;;16.93;13.13;;;26.10;61.80;;;;;;5060516;28;20443;-82
2023/08/13 03:02:10;;;;;;;16.33;11.83;;;26.10;61.70;;;;;;5068428;28;20542;-82
2023/08/13 03:04:39;;;;;;;16.50;12.63;;;26.10;62.00;;;;;;5066443;28;20422;-81
2023/08/13 03:07:09;;;;;;;15.20;12.00;;;26.10;61.70;;;;;;5059849;28;20437;-82
2023/08/13 03:09:37;;;;;;;15.93;12.67;;;26.10;61.80;;;;;;5064334;28;20413;-81
2023/08/13 03:12:05;;;;;;;20.60;13.13;;;26.20;62.00;;;;;;5085545;28;20459;-81
2023/08/13 03:14:33;;;;;;;17.33;11.60;;;26.20;62.00;;;;;;5075140;28;20478;-82
2023/08/13 03:17:02;;;;;;;15.80;12.07;;;26.20;61.80;;;;;;5067001;28;20476;-82
2023/08/13 03:19:30;;;;;;;15.00;12.70;;;26.20;61.50;;;;;;5073788;28;20441;-82
2023/08/13 03:21:57;;;;;;;16.00;12.30;;;26.10;61.70;;;;;;5067272;28;20428;-82
2023/08/13 03:24:27;;;;;;;15.67;11.97;;;26.10;61.80;;;;;;5074408;28;20453;-82
2023/08/13 03:26:55;;;;;;;15.50;11.90;;;26.20;61.80;;;;;;5078857;28;20440;-82
2023/08/13 03:29:23;;;;;;;18.83;11.93;;;26.20;61.60;;;;;;5070434;28;20488;-82
2023/08/13 03:31:51;;;;;;;17.70;12.27;;;26.10;61.70;;;;;;5069414;28;20459;-82
2023/08/13 03:34:19;;;;;;;18.30;12.73;;;26.10;61.70;;;;;;5074040;28;20443;-82
2023/08/13 03:36:47;;;;;;;15.17;11.17;;;26.10;61.60;;;;;;5064653;28;20529;-82
2023/08/13 03:39:14;;;;;;;14.27;11.30;;;26.10;61.80;;;;;;5075956;28;20434;-82
2023/08/13 03:41:44;;;;;;;15.10;11.17;;;26.10;61.60;;;;;;5067771;28;20472;-82
2023/08/13 03:44:12;;;;;;;15.33;11.60;;;26.10;61.60;;;;;;5067719;28;20513;-81
2023/08/13 03:46:40;;;;;;;14.73;11.23;;;26.10;61.40;;;;;;5065039;28;20513;-81
2023/08/13 03:49:08;;;;;;;14.13;10.80;;;26.10;61.50;;;;;;5062748;28;20516;-82
2023/08/13 03:51:36;;;;;;;15.23;10.50;;;26.10;61.40;;;;;;5065762;28;20473;-81
2023/08/13 03:54:04;;;;;;;13.40;10.63;;;26.10;61.50;;;;;;5062993;28;20456;-81
2023/08/13 03:56:37;;;;;;;12.10;10.20;;;26.10;61.70;;;;;;5068529;28;20442;-81
2023/08/13 03:59:06;;;;;;;11.93;10.00;;;26.10;61.60;;;;;;5076440;28;20424;-81
2023/08/13 04:01:34;;;;;;;14.30;9.80;;;26.10;61.40;;;;;;5064091;28;20444;-81
2023/08/13 04:04:02;;;;;;;12.73;9.77;;;26.10;61.60;;;;;;5065129;28;20442;-81
2023/08/13 04:06:30;;;;;;;15.27;10.57;;;26.10;61.30;;;;;;5056640;28;20439;-81
2023/08/13 04:08:58;;;;;;;12.47;10.07;;;26.10;61.50;;;;;;5051672;28;20528;-81
2023/08/13 04:11:26;;;;;;;13.53;10.50;;;26.10;61.40;;;;;;5063179;28;20449;-81
2023/08/13 04:13:54;;;;;;;13.20;9.50;;;26.00;61.50;;;;;;5063466;28;20484;-81
2023/08/13 04:16:23;;;;;;;12.60;9.50;;;26.00;61.50;;;;;;5065222;28;20525;-81
2023/08/13 04:18:52;;;;;;;11.57;8.70;;;26.00;61.10;;;;;;5072877;28;20416;-82
2023/08/13 04:21:20;;;;;;;16.00;9.77;;;26.00;61.40;;;;;;5067220;28;20531;-81
2023/08/13 04:23:49;;;;;;;12.43;9.13;;;26.00;61.60;;;;;;5076331;28;20442;-82
2023/08/13 04:26:16;;;;;;;15.03;9.07;;;26.00;61.50;;;;;;5067920;28;20470;-82
2023/08/13 04:28:45;;;;;;;15.33;9.00;;;26.00;61.30;;;;;;5073913;28;20479;-82
2023/08/13 04:31:13;;;;;;;10.83;8.40;;;25.90;61.40;;;;;;5062391;28;20473;-82
2023/08/13 04:33:42;;;;;;;9.43;8.43;;;25.90;61.30;;;;;;5061511;28;20467;-82
2023/08/13 04:36:10;;;;;;;11.43;8.30;;;25.90;61.30;;;;;;5060551;28;20532;-82
2023/08/13 04:38:38;;;;;;;10.60;8.87;;;25.90;61.20;;;;;;5055035;28;20496;-81
2023/08/13 04:41:06;;;;;;;12.43;8.47;;;25.90;61.30;;;;;;5066832;28;20874;-82
2023/08/13 04:43:34;;;;;;;8.70;7.50;;;25.90;61.30;;;;;;5060745;28;20523;-81
2023/08/13 04:46:02;;;;;;;9.70;8.23;;;25.90;61.40;;;;;;5066888;28;20416;-82
2023/08/13 04:48:44;;;;;;;10.40;7.90;;;25.90;61.20;;;;;;5076338;28;21075;-81
2023/08/13 04:51:16;;;;;;;9.10;6.90;;;25.90;61.30;;;;;;5075297;28;20438;-82
2023/08/13 04:53:44;;;;;;;10.83;8.23;;;25.90;61.30;;;;;;5078394;28;20501;-82
2023/08/13 04:56:12;;;;;;;12.60;7.50;;;25.90;61.30;;;;;;5063625;28;20450;-81
2023/08/13 04:58:41;;;;;;;10.00;7.27;;;25.90;61.00;;;;;;5077989;28;20947;-81
2023/08/13 05:01:10;;;;;;;9.80;7.03;;;25.90;61.20;;;;;;5071478;28;20829;-81
2023/08/13 05:03:38;;;;;;;8.23;6.87;;;25.90;61.20;;;;;;5062359;28;20490;-82
2023/08/13 05:06:08;;;;;;;8.77;6.90;;;25.90;61.20;;;;;;5071102;28;20424;-81
2023/08/13 05:08:36;;;;;;;7.80;6.43;;;25.90;61.10;;;;;;5067257;28;20443;-81
2023/08/13 05:11:03;;;;;;;8.90;7.03;;;25.90;61.00;;;;;;5074403;28;20484;-81
2023/08/13 05:13:32;;;;;;;6.90;6.10;;;25.90;61.00;;;;;;5080666;28;20456;-82
2023/08/13 05:16:00;;;;;;;9.50;6.93;;;25.90;61.00;;;;;;5072692;28;20437;-81
2023/08/13 05:18:29;;;;;;;9.53;6.37;;;25.90;60.90;;;;;;5069362;28;20460;-82
2023/08/13 05:20:56;;;;;;;8.83;6.60;;;25.90;61.20;;;;;;5060255;28;21015;-82
2023/08/13 05:23:26;;;;;;;8.57;6.80;;;25.90;60.90;;;;;;5071472;28;20480;-82
2023/08/13 05:25:55;;;;;;;8.47;6.30;;;25.90;61.10;;;;;;5073289;28;20518;-82
2023/08/13 05:28:23;;;;;;;8.80;6.20;;;25.90;60.60;;;;;;5063089;28;20535;-82
2023/08/13 05:30:51;;;;;;;8.10;6.20;;;25.90;60.70;;;;;;5081359;28;20529;-82
2023/08/13 05:33:19;;;;;;;9.77;5.90;;;25.90;61.00;;;;;;5066234;28;20557;-82
2023/08/13 05:35:47;;;;;;;7.00;5.30;;;25.90;60.80;;;;;;5069063;28;20459;-83
2023/08/13 05:38:15;;;;;;;6.80;6.07;;;25.90;60.70;;;;;;5072397;28;20551;-83
2023/08/13 05:40:45;;;;;;;8.00;5.60;;;25.90;60.80;;;;;;5070055;28;20477;-83
2023/08/13 05:43:13;;;;;;;10.20;6.20;;;25.90;60.60;;;;;;5066245;28;20470;-83
2023/08/13 05:45:41;;;;;;;8.83;5.73;;;25.90;60.60;;;;;;5068923;28;20473;-83
2023/08/13 05:48:09;;;;;;;6.60;5.70;;;25.90;60.50;;;;;;5073070;28;20530;-83
2023/08/13 05:50:37;;;;;;;7.60;5.40;;;25.90;60.60;;;;;;5068142;28;20508;-83
2023/08/13 05:53:05;;;;;;;9.40;5.60;;;25.90;60.60;;;;;;5076169;28;20448;-83
2023/08/13 05:55:33;;;;;;;7.70;5.30;;;25.90;60.50;;;;;;5076463;28;20453;-83
2023/08/13 05:58:05;;;;;;;9.03;5.73;;;25.90;60.50;;;;;;5076186;28;20439;-82
2023/08/13 06:00:33;;;;;;;5.63;4.83;;;25.90;61.00;;;;;;5078540;28;20508;-82
2023/08/13 06:03:01;;;;;;;6.00;4.73;;;25.90;60.40;;;;;;5070711;28;20515;-82
2023/08/13 06:05:30;;;;;;;4.93;4.53;;;25.90;60.40;;;;;;5066758;28;20446;-82
2023/08/13 06:07:58;;;;;;;6.47;5.27;;;25.90;60.40;;;;;;5063474;28;20443;-82
2023/08/13 06:10:26;;;;;;;8.97;4.90;;;25.90;60.30;;;;;;5069943;28;20424;-82
2023/08/13 06:12:54;;;;;;;8.27;5.23;;;25.90;60.30;;;;;;5078480;28;20448;-82
2023/08/13 06:15:24;;;;;;;6.77;4.57;;;25.90;60.30;;;;;;5069986;28;20466;-82
2023/08/13 06:17:52;;;;;;;6.87;4.80;;;25.90;60.10;;;;;;5066568;28;20465;-82
2023/08/13 06:20:20;;;;;;;7.30;4.60;;;25.90;60.40;;;;;;5086665;28;20455;-80
2023/08/13 06:22:48;;;;;;;7.40;4.80;;;26.00;60.20;;;;;;5071004;28;20465;-83
2023/08/13 06:25:16;;;;;;;6.67;4.23;;;26.00;60.20;;;;;;5061093;28;20419;-81
2023/08/13 06:27:44;;;;;;;5.67;4.43;;;26.00;60.00;;;;;;5078300;28;20412;-81
2023/08/13 06:30:12;;;;;;;5.03;4.53;;;26.00;60.10;;;;;;5068400;28;20499;-81
2023/08/13 06:32:42;;;;;;;6.37;3.93;;;26.00;60.00;;;;;;5072103;28;20428;-81
2023/08/13 06:35:10;;;;;;;5.27;4.20;;;26.10;60.20;;;;;;5078368;28;20449;-81
2023/08/13 06:37:38;;;;;;;7.47;4.70;;;26.10;60.00;;;;;;5065595;28;20550;-81
2023/08/13 06:40:26;;;;;;;5.73;4.30;;;26.10;60.00;;;;;;5062458;28;20406;-82
2023/08/13 06:42:53;;;;;;;5.37;3.77;;;26.20;60.00;;;;;;5064020;28;20965;-82
2023/08/13 06:45:26;;;;;;;8.83;4.53;;;26.20;59.70;;;;;;5071671;28;20508;-82
2023/08/13 06:47:56;;;;;;;5.93;4.10;;;26.20;59.70;;;;;;5066503;28;20466;-82
2023/08/13 06:50:24;;;;;;;9.00;4.30;;;26.30;59.70;;;;;;5061529;28;20413;-82
2023/08/13 06:52:52;;;;;;;5.97;3.80;;;26.30;59.80;;;;;;5058014;28;20490;-82
2023/08/13 06:55:20;;;;;;;8.73;4.00;;;26.40;59.70;;;;;;5068349;28;20452;-82
2023/08/13 06:57:48;;;;;;;9.07;4.00;;;26.40;59.70;;;;;;5077743;28;20396;-82
2023/08/13 07:00:19;;;;;;;9.10;3.90;;;26.50;59.60;;;;;;5070826;28;20421;-82
2023/08/13 07:02:56;;;;;;;6.27;3.57;;;26.60;59.60;;;;;;5078588;28;20456;-82
2023/08/13 07:05:24;;;;;;;5.40;3.53;;;26.60;59.40;;;;;;5059914;28;20419;-82
2023/08/13 07:07:52;;;;;;;6.20;3.73;;;26.70;59.20;;;;;;5058396;28;20439;-82
2023/08/13 07:10:20;;;;;;;6.20;3.90;;;26.70;59.30;;;;;;5075161;28;20452;-82
2023/08/13 07:12:49;;;;;;;5.13;3.50;;;26.70;59.30;;;;;;5063712;28;20538;-82
2023/08/13 07:15:17;;;;;;;4.00;3.70;;;26.80;59.50;;;;;;5058734;28;20458;-81
2023/08/13 07:17:45;;;;;;;5.33;3.40;;;26.80;59.20;;;;;;5064132;28;20451;-82
2023/08/13 07:20:14;;;;;;;3.70;3.40;;;26.90;59.50;;;;;;5077662;28;20520;-82
2023/08/13 07:22:43;;;;;;;4.43;3.70;;;26.90;59.20;;;;;;5073281;28;20496;-82
2023/08/13 07:25:12;;;;;;;7.77;4.00;;;27.00;59.20;;;;;;5077960;28;20438;-82
2023/08/13 07:27:40;;;;;;;5.40;3.43;;;27.00;59.20;;;;;;5070674;28;20473;-82
2023/08/13 07:30:09;;;;;;;5.27;3.30;;;27.00;59.10;;;;;;5064385;28;20520;-83
2023/08/13 07:32:40;;;;;;;6.10;3.50;;;27.10;59.00;;;;;;5063861;28;20578;-82
2023/08/13 07:35:10;;;;;;;6.03;3.67;;;27.20;58.70;;;;;;5061551;28;20442;-84
2023/08/13 07:37:40;;;;;;;3.90;3.50;;;27.20;58.90;;;;;;5066038;28;20524;-82
2023/08/13 07:40:11;;;;;;;4.87;3.70;;;27.30;58.80;;;;;;5057534;28;20446;-81
2023/08/13 07:42:39;;;;;;;4.10;2.90;;;27.40;58.80;;;;;;5065766;28;20482;-81
2023/08/13 07:45:10;;;;;;;3.37;3.07;;;27.50;58.80;;;;;;5065909;28;20446;-81
2023/08/13 07:47:39;;;;;;;3.40;3.10;;;27.60;58.70;;;;;;5062350;28;20425;-83
2023/08/13 07:50:08;;;;;;;3.70;3.00;;;27.60;58.40;;;;;;5065487;28;20441;-83
2023/08/13 07:52:36;;;;;;;3.57;2.77;;;27.60;58.30;;;;;;5069514;28;20489;-83
2023/08/13 07:55:07;;;;;;;5.00;3.70;;;27.70;58.60;;;;;;5077144;28;20467;-80
2023/08/13 07:57:35;;;;;;;4.70;2.90;;;27.70;58.50;;;;;;5076924;28;20468;-81
2023/08/13 08:00:05;;;;;;;8.20;3.23;;;27.80;58.50;;;;;;5073330;28;20818;-80
2023/08/13 08:02:33;;;;;;;3.70;2.80;;;27.90;58.30;;;;;;5066829;28;20443;-80
2023/08/13 08:05:02;;;;;;;7.70;3.23;;;28.00;58.20;;;;;;5063847;28;20437;-80
2023/08/13 08:07:30;;;;;;;4.00;2.80;;;28.10;57.90;;;;;;5066469;28;20481;-81
2023/08/13 08:09:58;;;;;;;3.33;2.50;;;28.20;58.00;;;;;;5067764;28;20484;-81
2023/08/13 08:12:28;;;;;;;3.50;2.90;;;28.30;57.90;;;;;;5065437;28;20564;-80
2023/08/13 08:14:56;;;;;;;2.77;2.57;;;28.30;57.80;;;;;;5069984;28;20456;-81
2023/08/13 08:17:23;;;;;;;4.63;2.77;;;28.40;57.80;;;;;;5066065;28;20410;-81
2023/08/13 08:19:51;;;;;;;3.40;2.93;;;28.40;57.60;;;;;;5065122;28;20536;-81
2023/08/13 08:22:19;;;;;;;3.43;3.10;;;28.40;57.60;;;;;;5065286;28;20492;-81
2023/08/13 08:24:47;;;;;;;3.30;3.00;;;28.40;57.90;;;;;;5066173;28;20420;-81
2023/08/13 08:27:15;;;;;;;3.53;2.90;;;28.50;57.70;;;;;;5065208;28;20456;-81
2023/08/13 08:29:44;;;;;;;3.03;2.60;;;28.60;57.80;;;;;;5077511;28;20512;-82
2023/08/13 08:32:12;;;;;;;6.63;3.37;;;28.70;57.70;;;;;;5075146;28;20461;-81
2023/08/13 08:34:40;;;;;;;3.00;2.70;;;28.90;57.50;;;;;;5067534;28;20436;-82
2023/08/13 08:37:10;;;;;;;3.83;2.77;;;29.00;57.40;;;;;;5070530;28;20519;-81
2023/08/13 08:39:39;;;;;;;4.23;2.67;;;29.10;57.30;;;;;;5068555;28;20991;-81
2023/08/13 08:42:08;;;;;;;2.53;2.33;;;29.20;57.00;;;;;;5071333;28;20993;-83
2023/08/13 08:44:36;;;;;;;2.90;2.63;;;29.50;56.90;;;;;;5063380;28;20420;-79
2023/08/13 08:47:06;;;;;;;2.53;2.30;;;29.60;56.60;;;;;;5064218;28;20862;-77
2023/08/13 08:49:34;;;;;;;4.60;2.70;;;29.60;56.10;;;;;;5068666;28;20517;-81
2023/08/13 08:52:02;;;;;;;3.40;2.90;;;29.70;56.40;;;;;;5073996;28;20489;-76
2023/08/13 08:54:30;;;;;;;5.30;2.70;;;29.70;56.10;;;;;;5074683;28;20459;-80
2023/08/13 08:56:58;;;;;;;4.30;2.83;;;29.70;56.10;;;;;;5064979;28;20453;-81
2023/08/13 08:59:26;;;;;;;2.90;2.60;;;29.80;56.30;;;;;;5066671;28;20402;-80
2023/08/13 09:01:54;;;;;;;2.10;2.00;;;29.90;56.10;;;;;;5066636;28;20507;-81
2023/08/13 09:04:23;;;;;;;2.97;2.40;;;29.90;55.70;;;;;;5066681;28;20434;-81
2023/08/13 09:06:55;;;;;;;3.10;2.10;;;29.90;56.30;;;;;;5065938;28;20485;-79
2023/08/13 09:09:24;;;;;;;4.37;2.73;;;29.90;56.00;;;;;;5061278;28;20510;-82
2023/08/13 09:11:52;;;;;;;3.27;2.50;;;30.00;56.00;;;;;;5063545;28;20508;-80
2023/08/13 09:14:20;;;;;;;4.03;2.23;;;30.20;55.70;;;;;;5063937;28;20431;-80
2023/08/13 09:16:48;;;;;;;2.90;2.33;;;30.30;55.60;;;;;;5061050;28;20504;-82
2023/08/13 09:19:16;;;;;;;3.80;2.47;;;30.30;55.20;;;;;;5067182;28;20463;-83
2023/08/13 09:21:49;;;;;;;2.80;2.17;;;30.30;55.20;;;;;;5065246;28;20549;-83
2023/08/13 09:24:17;;;;;;;3.00;2.23;;;30.30;55.30;;;;;;5065710;28;20518;-79
2023/08/13 09:26:45;;;;;;;4.60;2.33;;;30.40;55.40;;;;;;5066383;28;20453;-80
2023/08/13 09:29:13;;;;;;;2.20;2.10;;;30.60;55.50;;;;;;5072565;28;20441;-81
2023/08/13 09:31:41;;;;;;;2.10;2.00;;;30.70;55.30;;;;;;5071205;28;20479;-80
2023/08/13 09:34:09;;;;;;;2.77;2.37;;;30.90;55.00;;;;;;5062861;28;20445;-83
2023/08/13 09:36:41;;;;;;;4.70;2.30;;;31.00;54.80;;;;;;5061077;28;20443;-82
2023/08/13 09:39:11;;;;;;;2.70;2.10;;;31.20;54.50;;;;;;5056914;28;20442;-80
2023/08/13 09:41:39;;;;;;;2.33;2.03;;;31.40;54.20;;;;;;5065990;28;20466;-77
2023/08/13 09:44:09;;;;;;;2.57;1.80;;;31.60;54.00;;;;;;5073978;28;20442;-79
2023/08/13 09:46:37;;;;;;;4.13;2.30;;;31.80;53.70;;;;;;5079140;28;20508;-80
2023/08/13 09:49:09;;;;;;;3.60;2.03;;;31.90;53.40;;;;;;5079695;28;20449;-81
2023/08/13 09:51:37;;;;;;;2.30;2.03;;;32.10;53.10;;;;;;5058936;28;20469;-79
2023/08/13 09:54:13;;;;;;;2.03;1.90;;;32.30;52.80;;;;;;5058774;28;20825;-79
2023/08/13 09:56:42;;;;;;;4.57;2.10;;;32.50;52.60;;;;;;5067190;28;20556;-76
2023/08/13 09:59:11;;;;;;;4.07;2.50;;;32.60;52.30;;;;;;5076834;28;20532;-83
2023/08/13 10:01:39;;;;;;;3.33;2.27;;;31.90;48.30;;;;;;5074817;28;20429;-83
2023/08/13 10:04:07;;;;;;;3.67;2.07;;;31.70;48.90;;;;;;5081410;28;20429;-83
2023/08/13 10:06:35;;;;;;;3.57;1.43;;;31.60;47.80;;;;;;5075361;28;20426;-83
2023/08/13 10:09:04;;;;;;;6.80;2.20;;;30.60;47.60;;;;;;5069027;28;20480;-80
2023/08/13 10:11:33;;;;;;;6.63;2.00;;;30.60;48.70;;;;;;5069735;28;20501;-77
2023/08/13 10:14:02;;;;;;;7.53;1.70;;;30.20;49.70;;;;;;5062489;28;20431;-79
2023/08/13 10:16:30;;;;;;;3.87;1.50;;;30.50;51.00;;;;;;5065710;28;20434;-75
2023/08/13 10:19:00;;;;;;;3.60;1.70;;;30.80;50.10;;;;;;5073914;28;20441;-76
2023/08/13 10:21:35;;;;;;;10.10;1.60;;;30.60;49.00;;;;;;5063823;28;20504;-75
2023/08/13 10:24:04;;;;;;;5.70;1.50;;;30.50;48.70;;;;;;5054248;28;20431;-78
2023/08/13 10:26:33;;;;;;;5.10;1.30;;;30.60;49.90;;;;;;5055694;28;20464;-75
2023/08/13 10:29:02;;;;;;;3.20;1.63;;;30.80;49.10;;;;;;5067430;28;20488;-77
2023/08/13 10:31:30;;;;;;;5.20;1.97;;;30.40;49.30;;;;;;5063674;28;20444;-77
2023/08/13 10:34:03;;;;;;;4.37;1.37;;;30.30;48.60;;;;;;5064429;28;20454;-77
2023/08/13 10:36:44;;;;;;;2.20;1.30;;;30.30;49.20;;;;;;5063114;28;20516;-80
2023/08/13 10:39:30;;;;;;;2.83;1.33;;;30.20;48.50;;;;;;5072620;28;20512;-79
2023/08/13 10:42:00;;;;;;;2.10;1.30;;;30.40;48.40;;;;;;5053071;28;20529;-78
2023/08/13 10:44:29;;;;;;;4.10;1.20;;;30.50;48.40;;;;;;5060973;28;20502;-77
2023/08/13 10:46:57;;;;;;;4.40;1.20;;;30.60;49.00;;;;;;5059756;28;20466;-79
2023/08/13 10:49:26;;;;;;;3.80;1.30;;;30.40;48.30;;;;;;5062985;28;20434;-78
2023/08/13 10:51:54;;;;;;;1.80;1.17;;;30.40;48.70;;;;;;5059409;28;20524;-76
2023/08/13 10:54:25;;;;;;;1.87;1.27;;;30.60;49.00;;;;;;5070148;28;20438;-78
2023/08/13 10:56:54;;;;;;;3.00;1.30;;;30.70;48.10;;;;;;5067059;28;20456;-77
2023/08/13 10:59:30;;;;;;;1.60;1.50;;;30.20;48.70;;;;;;5072821;28;20483;-76
2023/08/13 11:02:20;;;;;;;2.00;1.03;;;30.40;48.30;;;;;;5059984;28;20533;-78
2023/08/13 11:04:50;;;;;;;3.73;1.60;;;30.50;47.60;;;;;;5060805;28;20540;-79
2023/08/13 11:07:18;;;;;;;2.50;1.17;;;30.50;47.80;;;;;;5074730;28;20494;-81
2023/08/13 11:09:46;;;;;;;4.53;1.30;;;30.60;47.00;;;;;;5067056;28;20469;-78
2023/08/13 11:12:14;;;;;;;2.23;1.50;;;30.70;47.40;;;;;;5075379;28;20477;-78
2023/08/13 11:14:44;;;;;;;2.13;1.37;;;30.70;46.60;;;;;;5062319;28;20489;-77
2023/08/13 11:17:12;;;;;;;1.87;1.33;;;30.60;47.30;;;;;;5065396;28;20473;-81
2023/08/13 11:19:40;;;;;;;5.13;1.60;;;30.80;47.90;;;;;;5063699;28;20462;-82
2023/08/13 11:22:08;;;;;;;3.13;1.30;;;31.30;47.30;;;;;;5060745;28;20462;-80
2023/08/13 11:24:37;;;;;;;3.27;1.23;;;31.30;47.30;;;;;;5060121;28;20468;-81
2023/08/13 11:27:05;;;;;;;1.70;1.13;;;31.40;47.30;;;;;;5065465;28;20446;-83
2023/08/13 11:29:33;;;;;;;3.77;1.17;;;31.50;47.30;;;;;;5067421;28;20450;-80
2023/08/13 11:32:05;;;;;;;1.60;1.23;;;31.60;47.30;;;;;;5058194;28;20506;-76
2023/08/13 11:34:34;;;;;;;3.73;1.30;;;31.80;47.40;;;;;;5059678;28;20453;-78
2023/08/13 11:37:02;;;;;;;2.93;1.27;;;31.90;47.10;;;;;;5062054;28;20469;-78
2023/08/13 11:39:30;;;;;;;3.30;1.30;;;31.90;46.90;;;;;;5065037;28;20512;-77
2023/08/13 11:42:07;;;;;;;3.03;1.40;;;32.00;46.90;;;;;;5061691;28;20462;-77
2023/08/13 11:44:35;;;;;;;4.43;1.10;;;31.90;46.90;;;;;;5066091;28;20477;-75
2023/08/13 11:47:05;;;;;;;1.63;1.20;;;31.90;47.10;;;;;;5058333;28;20430;-77
2023/08/13 11:49:41;;;;;;;4.80;1.30;;;31.90;47.30;;;;;;5068056;28;20465;-78
2023/08/13 11:52:10;;;;;;;2.63;1.13;;;31.90;47.30;;;;;;5055936;28;20474;-77
2023/08/13 11:54:38;;;;;;;2.40;1.07;;;31.90;47.50;;;;;;5055589;28;20434;-74
2023/08/13 11:57:06;;;;;;;2.00;1.20;;;31.90;47.60;;;;;;5057385;28;20452;-78
2023/08/13 11:59:34;;;;;;;1.50;1.10;;;31.90;47.70;;;;;;5062843;28;20446;-76
2023/08/13 12:02:02;;;;;;;4.47;1.03;;;31.90;47.80;;;;;;5065113;28;20511;-80
2023/08/13 12:04:32;;;;;;;1.20;1.10;;;31.90;47.90;;;;;;5057445;28;20504;-79
2023/08/13 12:07:07;;;;;;;3.27;1.20;;;31.90;48.00;;;;;;5071450;28;20445;-79
2023/08/13 12:09:35;;;;;;;4.33;1.13;;;31.90;48.10;;;;;;5055061;28;20427;-79
2023/08/13 12:12:03;;;;;;;1.27;0.90;;;31.90;48.20;;;;;;5056322;28;20531;-78
2023/08/13 12:14:31;;;;;;;2.30;1.13;;;31.90;48.20;;;;;;5058676;28;20481;-79
2023/08/13 12:16:59;;;;;;;2.20;1.10;;;31.90;48.30;;;;;;5061560;28;20439;-78
2023/08/13 12:19:27;;;;;;;2.87;1.30;;;31.90;48.40;;;;;;5063049;28;20473;-79
2023/08/13 12:21:56;;;;;;;2.03;1.17;;;31.90;48.50;;;;;;5066086;28;20485;-79
2023/08/13 12:24:24;;;;;;;1.00;1.00;;;31.90;48.60;;;;;;5064223;28;20514;-79
2023/08/13 12:26:52;;;;;;;4.67;1.30;;;32.00;48.70;;;;;;5060521;28;20537;-79
2023/08/13 12:29:20;;;;;;;2.27;1.33;;;32.30;48.90;;;;;;5055726;28;20442;-79
2023/08/13 12:31:47;;;;;;;1.53;1.10;;;32.50;48.30;;;;;;5052797;28;20536;-79
2023/08/13 12:34:15;;;;;;;1.27;1.13;;;32.50;48.00;;;;;;5060564;28;20477;-79
2023/08/13 12:36:43;;;;;;;1.40;1.30;;;32.50;48.10;;;;;;5054428;28;20553;-79
2023/08/13 12:39:12;;;;;;;6.70;1.10;;;32.50;48.10;;;;;;5052728;28;20851;-78
2023/08/13 12:41:40;;;;;;;1.20;1.10;;;32.60;48.40;;;;;;5056537;28;20434;-78
2023/08/13 12:44:08;;;;;;;4.53;1.10;;;32.60;48.10;;;;;;5063905;28;20504;-78
2023/08/13 12:46:36;;;;;;;1.70;1.00;;;32.60;48.10;;;;;;5057839;28;20430;-79
2023/08/13 12:49:04;;;;;;;1.07;1.07;;;32.50;48.20;;;;;;5055373;28;20438;-78
2023/08/13 12:51:32;;;;;;;2.83;1.00;;;32.50;48.40;;;;;;5055442;28;20489;-79